Time;durP1;ratioP1;P1;durP2;ratioP2;P2;SDS_P1;SDS_P2;PMS_P1;PMS_P2;Temp;Humidity;BMP_temperature;BMP_pressure;BME280_temperature;BME280_humidity;BME280_pressure;Samples;Min_cycle;Max_cycle;Signal;HPM_P1;HPM_P2
2023/02/15 00:01:35;;;;;;;;;85.25;68.00;;;;;9.28;61.33;102287.78;5004082;28;45461;-69
2023/02/15 00:04:00;;;;;;;;;86.25;69.50;;;;;9.48;61.77;102329.50;5003485;28;45542;-69
2023/02/15 00:06:26;;;;;;;;;86.50;71.25;;;;;9.21;61.98;102285.16;5002556;28;46229;-69
2023/02/15 00:08:53;;;;;;;;;81.50;63.00;;;;;9.38;61.85;102315.31;5004872;28;45316;-69
2023/02/15 00:11:39;;;;;;;;;79.25;62.00;;;;;9.22;61.74;102281.59;5003252;28;45393;-69
2023/02/15 00:14:17;;;;;;;;;87.75;71.00;;;;;9.23;61.53;102289.59;4992860;28;45526;-69
2023/02/15 00:16:44;;;;;;;;;87.50;70.00;;;;;9.21;62.05;102283.38;5003417;28;45388;-69
2023/02/15 00:19:11;;;;;;;;;86.25;68.50;;;;;9.33;61.66;102298.44;5003668;28;47507;-69
2023/02/15 00:21:38;;;;;;;;;83.75;64.50;;;;;9.17;61.85;102270.97;5004091;28;45496;-69
2023/02/15 00:24:05;;;;;;;;;82.50;67.50;;;;;9.37;62.16;102302.91;5005129;28;45384;-69
2023/02/15 00:26:32;;;;;;;;;88.00;70.75;;;;;9.23;61.76;102281.59;5003192;28;45655;-69
2023/02/15 00:28:58;;;;;;;;;86.50;71.75;;;;;9.33;62.51;102293.13;5003491;28;47378;-69
2023/02/15 00:31:24;;;;;;;;;85.00;71.50;;;;;9.13;62.06;102263.84;5003358;28;45336;-69
2023/02/15 00:33:49;;;;;;;;;89.50;71.00;;;;;9.12;62.14;102262.09;5003558;28;45355;-69
2023/02/15 00:36:15;;;;;;;;;88.25;72.50;;;;;9.22;61.74;102284.25;5002297;28;45736;-69
2023/02/15 00:38:43;;;;;;;;;86.00;70.75;;;;;9.23;61.70;102289.59;5004136;28;45378;-69
2023/02/15 00:41:09;;;;;;;;;79.75;62.75;;;;;9.24;62.22;102293.16;5003212;28;45311;-69
2023/02/15 00:43:36;;;;;;;;;90.50;77.25;;;;;9.23;61.91;102294.03;5003251;28;45522;-69
2023/02/15 00:46:03;;;;;;;;;86.50;70.00;;;;;9.18;62.12;102282.50;5002838;28;45491;-69
2023/02/15 00:48:29;;;;;;;;;91.00;75.50;;;;;8.97;62.24;102249.69;5004487;28;45354;-69
2023/02/15 00:50:57;;;;;;;;;89.75;77.00;;;;;9.01;62.21;102256.78;5003049;28;45380;-69
2023/02/15 00:53:24;;;;;;;;;84.50;69.50;;;;;8.97;61.98;102251.44;5003485;28;45387;-69
2023/02/15 00:55:49;;;;;;;;;90.00;75.00;;;;;8.93;62.16;102245.25;4999820;28;45577;-69
2023/02/15 00:58:15;;;;;;;;;89.00;72.50;;;;;8.92;62.27;102256.81;5000966;28;45800;-69
2023/02/15 01:00:43;;;;;;;;;90.50;78.50;;;;;9.06;62.24;102275.41;4999852;28;45654;-69
2023/02/15 01:03:09;;;;;;;;;84.50;66.75;;;;;9.04;62.18;102277.22;5001297;28;45264;-69
2023/02/15 01:05:35;;;;;;;;;85.00;70.00;;;;;8.90;62.44;102247.91;4998574;28;45936;-69
2023/02/15 01:08:01;;;;;;;;;77.00;59.25;;;;;8.96;62.23;102260.34;4997835;28;48229;-69
2023/02/15 01:10:28;;;;;;;;;89.50;76.00;;;;;8.93;62.21;102261.22;5000816;28;45356;-69
2023/02/15 01:12:54;;;;;;;;;86.75;72.75;;;;;8.87;62.58;102259.47;5001122;28;45257;-69
2023/02/15 01:15:20;;;;;;;;;85.75;68.00;;;;;9.04;62.34;102275.41;5000875;28;45400;-69
2023/02/15 01:17:51;;;;;;;;;91.00;75.00;;;;;8.83;62.40;102243.47;5001053;28;46488;-69
2023/02/15 01:20:17;;;;;;;;;89.50;75.75;;;;;9.03;62.56;102278.97;4998448;28;45898;-69
2023/02/15 01:22:43;;;;;;;;;91.00;77.50;;;;;8.93;62.23;102258.56;5000847;28;45360;-69
2023/02/15 01:25:09;;;;;;;;;85.25;72.00;;;;;9.02;62.39;102262.97;5001011;28;45323;-69
2023/02/15 01:27:34;;;;;;;;;82.50;66.75;;;;;8.93;62.33;102250.56;5000555;28;45518;-69
2023/02/15 01:30:00;;;;;;;;;85.75;70.25;;;;;8.84;62.18;102248.81;4999644;28;45652;-69
2023/02/15 01:32:26;;;;;;;;;81.00;63.75;;;;;8.68;62.46;102217.75;4999565;28;45404;-69
2023/02/15 01:34:52;;;;;;;;;79.25;63.00;;;;;8.70;62.61;102223.97;5000297;28;45560;-69
2023/02/15 01:37:18;;;;;;;;;86.25;65.75;;;;;8.88;62.34;102255.88;4998458;28;46726;-69
2023/02/15 01:39:43;;;;;;;;;86.25;71.00;;;;;8.60;62.76;102204.44;4998610;28;45937;-69
2023/02/15 01:42:20;;;;;;;;;90.25;77.75;;;;;8.67;62.94;102224.88;4998759;28;45317;-69
2023/02/15 01:45:00;;;;;;;;;87.00;70.50;;;;;8.72;62.79;102243.50;5000827;28;45405;-69
2023/02/15 01:47:38;;;;;;;;;84.75;69.50;;;;;8.87;62.43;102271.88;5000354;28;45383;-69
2023/02/15 01:50:12;;;;;;;;;90.00;72.00;;;;;8.85;62.59;102277.22;4999160;28;45375;-69
2023/02/15 01:52:43;;;;;;;;;85.00;70.75;;;;;8.76;62.65;102247.94;4988642;28;45457;-69
2023/02/15 01:55:10;;;;;;;;;89.75;71.50;;;;;8.59;62.63;102228.44;4999075;28;45891;-69
2023/02/15 01:57:36;;;;;;;;;80.75;65.25;;;;;8.66;62.60;102246.16;5015279;28;47336;-69
2023/02/15 02:00:06;;;;;;;;;87.75;73.00;;;;;8.55;62.58;102227.50;5000521;28;45463;-69
2023/02/15 02:02:31;;;;;;;;;86.75;70.50;;;;;8.73;62.42;102257.69;4986058;28;45307;-69
2023/02/15 02:05:02;;;;;;;;;85.50;68.25;;;;;8.53;62.79;102223.97;4999077;28;45505;-69
2023/02/15 02:07:34;;;;;;;;;85.00;68.00;;;;;8.49;62.80;102211.56;4999544;28;45706;-69
2023/02/15 02:10:01;;;;;;;;;85.00;64.75;;;;;8.55;62.96;102234.63;4997168;28;45469;-69
2023/02/15 02:12:26;;;;;;;;;89.75;74.50;;;;;8.47;62.58;102213.31;5000236;28;45497;-69
2023/02/15 02:14:53;;;;;;;;;80.50;61.00;;;;;8.64;62.86;102235.50;4999919;28;45524;-69
2023/02/15 02:17:43;;;;;;;;;90.00;76.75;;;;;8.66;62.87;102241.72;5000153;28;46356;-69
2023/02/15 02:20:43;;;;;;;;;87.00;73.50;;;;;8.69;62.65;102249.72;4999645;28;45551;-69
2023/02/15 02:23:17;;;;;;;;;92.25;74.00;;;;;8.67;62.97;102243.50;4998826;28;45455;-69
2023/02/15 02:25:56;;;;;;;;;86.00;68.00;;;;;8.62;63.16;102244.38;5000068;28;45592;-69
2023/02/15 02:28:46;;;;;;;;;88.50;75.50;;;;;8.64;62.91;102250.59;4986730;28;46444;-69
2023/02/15 02:31:33;;;;;;;;;89.75;73.00;;;;;8.63;62.96;102246.16;4999333;28;45887;-69
2023/02/15 02:34:14;;;;;;;;;87.50;70.75;;;;;8.41;62.88;102213.31;4998629;28;45417;-69
2023/02/15 02:36:42;;;;;;;;;82.50;63.75;;;;;8.61;62.70;102245.28;4997281;28;45542;-69
2023/02/15 02:39:22;;;;;;;;;84.00;67.25;;;;;8.56;62.76;102228.44;4997680;28;48038;-69
2023/02/15 02:42:02;;;;;;;;;84.50;66.25;;;;;8.33;62.55;102202.66;4991105;28;45872;-69
2023/02/15 02:44:34;;;;;;;;;87.50;69.50;;;;;8.56;62.81;102239.06;4985500;28;45353;-69
2023/02/15 02:47:10;;;;;;;;;80.50;64.50;;;;;8.45;62.52;102226.66;4999511;28;45442;-69
2023/02/15 02:49:38;;;;;;;;;85.50;67.75;;;;;8.49;62.65;102227.53;4998034;28;48157;-69
2023/02/15 02:52:25;;;;;;;;;88.00;70.75;;;;;8.23;62.59;102187.56;4998314;28;46272;-69
2023/02/15 02:54:51;;;;;;;;;80.25;64.00;;;;;8.27;62.69;102187.59;4998370;28;45361;-69
2023/02/15 02:57:17;;;;;;;;;87.00;70.25;;;;;8.14;62.22;102183.16;4997873;28;45376;-69
2023/02/15 02:59:46;;;;;;;;;86.75;68.50;;;;;8.35;62.35;102216.84;4999574;28;46243;-69
2023/02/15 03:02:21;;;;;;;;;83.00;64.50;;;;;8.12;62.45;102177.81;4997835;28;46190;-69
2023/02/15 03:04:58;;;;;;;;;87.50;69.25;;;;;8.29;62.69;102211.53;4996983;28;45526;-69
2023/02/15 03:07:29;;;;;;;;;92.00;71.25;;;;;8.05;62.44;102186.69;4986518;28;45448;-69
2023/02/15 03:09:58;;;;;;;;;88.00;67.25;;;;;8.33;62.59;102237.25;4998962;28;45593;-69
2023/02/15 03:12:31;;;;;;;;;87.25;71.50;;;;;8.27;62.83;102226.59;4999305;28;45553;-69
2023/02/15 03:15:05;;;;;;;;;81.00;63.75;;;;;8.12;62.53;102198.22;4999357;28;45487;-69
2023/02/15 03:17:33;;;;;;;;;89.25;72.25;;;;;8.08;62.88;102197.31;4997644;28;45436;-69
2023/02/15 03:20:03;;;;;;;;;88.00;69.25;;;;;8.21;62.62;102230.13;4998091;28;46564;-69
2023/02/15 03:22:36;;;;;;;;;83.00;65.50;;;;;8.28;63.05;102237.22;4999268;28;45655;-69
2023/02/15 03:25:27;;;;;;;;;85.00;67.00;;;;;8.01;62.97;102194.66;4999131;28;45257;-69
2023/02/15 03:27:59;;;;;;;;;85.00;67.25;;;;;7.95;62.96;102179.56;4997553;28;45661;-69
2023/02/15 03:30:26;;;;;;;;;86.25;71.75;;;;;8.04;62.81;102199.97;4997439;28;47983;-69
2023/02/15 03:32:53;;;;;;;;;81.75;66.00;;;;;8.18;62.44;102218.59;4997592;28;45515;-69
2023/02/15 03:35:25;;;;;;;;;87.50;69.00;;;;;8.03;63.07;102196.41;4996777;28;45444;-69
2023/02/15 03:38:00;;;;;;;;;85.25;68.25;;;;;8.19;63.04;102217.75;4998868;28;45439;-69
2023/02/15 03:43:30;;;;;;;;;79.75;63.75;;;;;7.93;62.74;102191.97;4989189;28;45876;-69
2023/02/15 03:46:21;;;;;;;;;83.25;63.00;;;;;8.14;62.85;102225.69;4997024;28;45354;-69
2023/02/15 03:48:53;;;;;;;;;84.25;68.00;;;;;7.93;62.75;102194.63;4987832;28;45639;-69
2023/02/15 03:51:38;;;;;;;;;83.25;64.50;;;;;7.90;62.81;102191.97;4998835;28;45525;-69
2023/02/15 03:54:10;;;;;;;;;82.25;64.25;;;;;7.76;62.97;102181.31;4996829;28;45770;-69
2023/02/15 03:56:38;;;;;;;;;81.00;63.50;;;;;7.87;63.19;102194.59;5010424;28;45325;-69
2023/02/15 04:02:14;;;;;;;;;77.75;61.25;;;;;8.02;62.88;102218.59;4997979;28;45472;-69
2023/02/15 04:04:44;;;;;;;;;85.25;66.25;;;;;7.81;63.19;102183.97;4997629;28;45543;-69
2023/02/15 04:07:10;;;;;;;;;81.25;59.75;;;;;7.97;63.01;102220.34;4996962;28;45433;-69
2023/02/15 04:12:20;;;;;;;;;85.00;65.00;;;;;7.72;62.92;102192.84;4986117;28;45351;-69
2023/02/15 04:17:30;;;;;;;;;82.25;65.00;;;;;7.84;62.99;102222.09;4998627;28;45414;-69
2023/02/15 04:25:23;;;;;;;;;83.25;66.00;;;;;7.84;63.09;102227.41;4987284;28;45393;-69
2023/02/15 04:27:52;;;;;;;;;83.25;64.25;;;;;7.83;63.17;102230.94;4996872;28;45282;-69
2023/02/15 04:30:20;;;;;;;;;83.00;63.25;;;;;7.61;63.04;102193.66;4998715;28;45597;-69
2023/02/15 04:32:46;;;;;;;;;80.00;63.25;;;;;7.81;63.33;102229.19;5000377;28;48238;-69
2023/02/15 04:35:13;;;;;;;;;82.25;63.50;;;;;7.52;63.46;102184.78;5000623;28;45455;-69
2023/02/15 04:37:39;;;;;;;;;78.75;61.00;;;;;7.56;63.58;102192.75;5000334;28;45496;-69
2023/02/15 04:40:07;;;;;;;;;79.75;63.50;;;;;7.51;63.27;102183.00;5000562;28;45804;-69
2023/02/15 04:42:32;;;;;;;;;83.00;64.00;;;;;7.74;63.30;102229.16;5001318;28;45494;-69
2023/02/15 04:44:58;;;;;;;;;85.00;67.00;;;;;7.54;63.24;102193.66;5001223;28;45397;-69
2023/02/15 04:47:23;;;;;;;;;86.50;64.75;;;;;7.48;63.39;102190.97;5001456;28;45389;-69
2023/02/15 04:49:49;;;;;;;;;81.25;63.50;;;;;7.70;63.63;102227.38;4999331;28;45520;-69
2023/02/15 04:52:15;;;;;;;;;76.25;60.25;;;;;7.31;63.71;102159.03;5001369;28;46149;-69
2023/02/15 04:54:40;;;;;;;;;84.75;64.25;;;;;7.31;63.50;102151.94;4998411;28;45411;-69
2023/02/15 04:57:06;;;;;;;;;86.75;64.75;;;;;7.52;64.10;102180.34;4999687;28;45521;-69
2023/02/15 04:59:31;;;;;;;;;83.75;64.25;;;;;7.59;63.92;102198.09;5000206;28;45443;-69
2023/02/15 05:01:57;;;;;;;;;79.50;62.25;;;;;7.38;63.76;102169.69;4999804;28;47432;-69
2023/02/15 05:04:22;;;;;;;;;78.75;62.00;;;;;7.27;63.69;102152.81;5000579;28;45376;-69
2023/02/15 05:06:48;;;;;;;;;86.50;67.00;;;;;7.47;63.46;102198.06;5000803;28;45478;-68
2023/02/15 05:09:15;;;;;;;;;85.75;64.75;;;;;7.41;63.74;102182.97;4999571;28;45555;-69
2023/02/15 05:11:40;;;;;;;;;83.50;62.75;;;;;7.67;63.44;102223.78;5000137;28;46396;-69
2023/02/15 07:30:06;;;;;;;;;87.25;66.25;;;;;6.94;65.25;102222.56;4840826;29;45541;-66
2023/02/15 07:36:48;;;;;;;;;;;;;;;;;;;;;
2023/02/15 07:39:33;;;;;;;;;92.75;67.75;;;;;7.07;64.71;102243.00;4880760;29;74042;-70
2023/02/15 07:42:24;;;;;;;;;88.75;74.25;;;;;6.99;64.98;102234.97;4872497;29;45382;-69
2023/02/15 07:44:50;;;;;;;;;95.50;77.25;;;;;7.00;64.72;102236.78;4879251;29;45694;-69
2023/02/15 07:47:15;;;;;;;;;97.00;79.00;;;;;6.94;64.87;102233.19;4874354;29;45564;-70
2023/02/15 07:49:41;;;;;;;;;90.75;69.50;;;;;6.98;65.06;102230.56;4882864;29;45282;-69
2023/02/15 07:52:08;;;;;;;;;92.25;76.25;;;;;6.89;64.98;102219.88;4890174;28;45399;-70
2023/02/15 07:54:34;;;;;;;;;91.00;74.25;;;;;6.71;65.28;102179.94;4884425;29;45395;-70
2023/02/15 07:57:58;;;;;;;;;;;;;;;;;;;;;
2023/02/15 08:01:07;;;;;;;;;94.00;70.50;;;;;7.10;65.03;102250.09;4867928;29;75642;-72
2023/02/15 08:07:06;;;;;;;;;88.50;72.75;;;;;7.06;65.50;102243.88;4908052;28;45582;-73
2023/02/15 08:09:43;;;;;;;;;92.00;76.50;;;;;7.22;65.51;102266.13;4898438;28;45542;-72
2023/02/15 08:12:08;;;;;;;;;92.75;74.25;;;;;7.00;65.93;102231.47;4886733;28;46146;-72
2023/02/15 08:14:43;;;;;;;;;96.25;78.00;;;;;6.96;65.68;102208.41;4883342;29;45582;-72
2023/02/15 08:17:11;;;;;;;;;91.50;72.50;;;;;7.19;65.56;102258.13;4872782;29;45536;-71
2023/02/15 08:19:46;;;;;;;;;92.00;69.25;;;;;7.05;65.50;102234.16;4877909;29;45539;-71
2023/02/15 08:22:29;;;;;;;;;96.50;84.75;;;;;7.30;65.12;102274.13;4898265;28;47329;-70
2023/02/15 08:25:00;;;;;;;;;95.75;80.50;;;;;7.09;66.12;102225.31;4884068;29;45486;-67
2023/02/15 08:27:38;;;;;;;;;92.50;75.75;;;;;7.17;65.92;102230.69;4881400;29;45533;-67
2023/02/15 08:30:14;;;;;;;;;;;;;;;;;;;;;
2023/02/15 08:32:43;;;;;;;;;96.50;79.75;;;;;7.07;65.73;102212.88;4876520;29;73745;-68
2023/02/15 08:35:08;;;;;;;;;95.50;82.50;;;;;7.19;65.63;102231.56;4877203;29;46459;-68
2023/02/15 08:37:37;;;;;;;;;89.00;76.25;;;;;7.41;65.32;102267.09;4879538;29;45548;-68
2023/02/15 08:40:13;;;;;;;;;98.25;80.75;;;;;7.29;65.59;102237.81;4890790;28;45904;-68
2023/02/15 08:42:40;;;;;;;;;97.25;87.00;;;;;7.35;65.73;102241.41;4876121;29;47960;-68
2023/02/15 08:45:07;;;;;;;;;93.00;77.75;;;;;7.38;65.30;102249.38;4877140;29;46112;-66
2023/02/15 08:47:32;;;;;;;;;96.75;81.25;;;;;7.45;65.51;102252.97;4876515;29;45578;-66
2023/02/15 08:49:57;;;;;;;;;95.50;81.25;;;;;7.40;65.23;102246.72;4877348;29;45756;-66
2023/02/15 08:52:23;;;;;;;;;96.50;88.75;;;;;7.36;65.56;102224.56;4875949;29;48372;-66
2023/02/15 08:54:48;;;;;;;;;91.50;77.75;;;;;7.38;65.65;102221.91;4875744;29;45370;-67
2023/02/15 08:57:13;;;;;;;;;94.00;82.50;;;;;7.40;65.65;102214.84;4877433;29;45399;-67
2023/02/15 08:59:39;;;;;;;;;95.75;83.75;;;;;7.60;65.87;102238.81;4879911;29;45442;-67
2023/02/15 09:02:04;;;;;;;;;98.00;86.75;;;;;7.68;65.58;102253.03;4877796;29;46816;-67
2023/02/15 09:04:29;;;;;;;;;96.00;84.25;;;;;7.65;66.25;102230.88;4878779;29;45636;-67
2023/02/15 09:06:55;;;;;;;;;100.00;90.50;;;;;7.59;65.96;102215.81;4876334;29;46530;-67
2023/02/15 09:09:21;;;;;;;;;90.25;69.75;;;;;7.74;65.94;102239.78;4877941;29;45422;-67
2023/02/15 09:11:49;;;;;;;;;93.25;79.50;;;;;7.78;65.89;102230.94;4878474;29;46129;-66
2023/02/15 09:14:20;;;;;;;;;94.00;83.00;;;;;7.84;65.97;102239.81;4875501;29;45903;-66
2023/02/15 09:16:49;;;;;;;;;101.25;84.00;;;;;7.79;65.75;102223.84;4880968;29;45595;-67
2023/02/15 09:19:17;;;;;;;;;106.00;88.75;;;;;7.78;66.05;102228.28;4876446;29;45469;-67
2023/02/15 09:21:43;;;;;;;;;94.50;80.75;;;;;7.87;66.17;102245.13;4877591;29;45556;-67
2023/02/15 09:24:11;;;;;;;;;94.75;84.00;;;;;7.77;66.00;102222.97;4876354;29;45292;-67
2023/02/15 09:26:40;;;;;;;;;98.00;86.00;;;;;7.83;65.97;102230.94;4874096;29;45429;-67
2023/02/15 09:29:06;;;;;;;;;96.00;84.75;;;;;7.83;65.91;102232.72;4896213;29;45764;-67
2023/02/15 09:31:36;;;;;;;;;98.25;85.00;;;;;7.87;65.59;102239.81;4877786;29;47272;-67
2023/02/15 09:34:02;;;;;;;;;100.50;90.00;;;;;7.91;65.65;102250.47;4878288;29;45691;-68
2023/02/15 09:36:32;;;;;;;;;100.00;91.00;;;;;8.01;65.92;102267.34;4878513;29;45559;-65
2023/02/15 09:39:03;;;;;;;;;97.00;88.75;;;;;8.01;65.83;102277.97;4887095;29;45479;-66
2023/02/15 09:41:50;;;;;;;;;95.50;85.75;;;;;8.04;65.89;102277.09;4878287;29;45396;-66
2023/02/15 09:44:53;;;;;;;;;103.00;95.25;;;;;8.06;65.59;102276.22;4875066;29;45578;-68
2023/02/15 09:47:29;;;;;;;;;108.25;92.50;;;;;8.08;65.24;102274.44;4871272;29;45756;-67
2023/02/15 09:50:21;;;;;;;;;102.00;92.25;;;;;8.12;66.15;102289.53;4876665;29;45860;-66
2023/02/15 09:52:52;;;;;;;;;101.75;92.75;;;;;8.16;65.68;102283.31;4883120;29;46341;-68
2023/02/15 09:55:38;;;;;;;;;102.25;92.00;;;;;8.16;65.81;102279.78;4880948;29;45924;-68
2023/02/15 09:58:09;;;;;;;;;94.50;80.75;;;;;8.24;65.51;102286.00;4879730;29;45647;-67
2023/02/15 10:00:58;;;;;;;;;104.50;92.00;;;;;8.18;65.29;102267.38;4883952;29;45466;-67
2023/02/15 10:03:51;;;;;;;;;104.25;94.00;;;;;8.29;65.40;102286.03;4886726;29;46711;-68
2023/02/15 10:06:34;;;;;;;;;116.00;95.50;;;;;8.31;65.42;102278.94;4877540;29;45425;-67
2023/02/15 10:09:11;;;;;;;;;104.75;96.50;;;;;8.33;65.57;102288.66;4878058;29;45902;-67
2023/02/15 10:11:39;;;;;;;;;107.50;96.75;;;;;8.41;65.57;102279.84;4874229;29;45532;-68
2023/02/15 10:14:27;;;;;;;;;103.75;93.75;;;;;8.46;65.40;102278.97;4879910;29;45771;-68
2023/02/15 10:17:19;;;;;;;;;114.00;101.75;;;;;8.39;65.44;102255.00;4875943;29;45885;-68
2023/02/15 10:20:05;;;;;;;;;109.25;95.00;;;;;8.57;65.11;102280.75;4878065;29;45664;-69
2023/02/15 10:22:52;;;;;;;;;92.25;85.25;;;;;8.59;65.06;102287.88;4875791;29;45877;-67
2023/02/15 10:25:59;;;;;;;;;105.75;97.00;;;;;8.44;64.81;102256.81;4887824;29;48150;-67
2023/02/15 10:28:53;;;;;;;;;104.25;88.50;;;;;8.59;64.67;102282.53;4887271;28;45550;-68
2023/02/15 10:31:27;;;;;;;;;101.50;95.00;;;;;8.64;64.85;102295.88;4873294;29;46392;-67
2023/02/15 10:33:59;;;;;;;;;104.75;90.00;;;;;8.68;65.03;102285.19;4875933;29;45526;-68
2023/02/15 10:37:06;;;;;;;;;106.25;95.75;;;;;8.73;64.88;102282.53;4874225;29;46261;-68
2023/02/15 10:39:41;;;;;;;;;104.00;95.00;;;;;8.71;64.67;102276.34;4869630;29;47216;-67
2023/02/15 10:42:27;;;;;;;;;112.25;101.50;;;;;8.67;64.83;102271.88;4872348;29;45785;-68
2023/02/15 10:45:06;;;;;;;;;105.75;91.75;;;;;8.82;64.48;102295.88;4875083;29;45529;-68
2023/02/15 10:47:52;;;;;;;;;106.50;91.25;;;;;8.71;64.77;102261.22;4878005;29;46230;-68
2023/02/15 10:50:44;;;;;;;;;120.75;103.50;;;;;8.87;64.98;102275.44;4873979;29;45539;-68
2023/02/15 10:53:15;;;;;;;;;113.25;102.25;;;;;8.97;64.39;102280.75;4878244;29;45569;-68
2023/02/15 10:56:02;;;;;;;;;113.25;94.75;;;;;9.01;64.92;102275.41;4874883;29;45581;-68
2023/02/15 10:58:55;;;;;;;;;106.25;92.00;;;;;9.07;65.33;102272.75;4882949;29;47245;-68
2023/02/15 11:01:30;;;;;;;;;119.00;106.50;;;;;9.14;65.09;102268.31;4874529;29;45927;-68
2023/02/15 11:04:25;;;;;;;;;106.50;97.75;;;;;9.20;64.76;102268.28;4879540;29;45739;-68
2023/02/15 11:06:55;;;;;;;;;112.00;103.75;;;;;9.27;64.35;102269.13;4870810;29;45826;-67
2023/02/15 11:09:23;;;;;;;;;118.75;104.50;;;;;9.22;64.62;102247.84;4879758;29;46912;-67
2023/02/15 11:11:52;;;;;;;;;99.50;88.00;;;;;9.33;64.75;102265.59;4873247;29;45855;-67
2023/02/15 11:14:36;;;;;;;;;104.50;96.25;;;;;9.36;64.10;102268.25;4872535;29;45472;-67
2023/02/15 11:17:14;;;;;;;;;97.00;88.50;;;;;9.36;63.91;102258.47;4880736;29;45627;-67
2023/02/15 11:20:22;;;;;;;;;97.50;89.75;;;;;9.49;64.55;102266.41;4877014;29;46167;-67
2023/02/15 11:22:53;;;;;;;;;107.75;96.50;;;;;9.54;63.72;102254.84;4885696;29;46052;-67
2023/02/15 11:25:24;;;;;;;;;106.75;95.25;;;;;9.57;63.59;102256.59;4875825;29;45528;-67
2023/02/15 11:27:50;;;;;;;;;104.25;100.50;;;;;9.52;64.11;102243.31;4869868;29;45494;-67
2023/02/15 11:30:25;;;;;;;;;102.00;92.00;;;;;9.59;63.46;102239.72;4875617;29;45975;-67
2023/02/15 11:32:56;;;;;;;;;107.00;93.50;;;;;9.61;63.68;102240.59;4874939;29;45661;-67
2023/02/15 11:35:37;;;;;;;;;104.25;90.00;;;;;9.59;63.64;102230.84;4878387;29;45375;-67
2023/02/15 11:38:29;;;;;;;;;100.25;91.75;;;;;9.82;63.48;102252.06;4877787;29;45462;-67
2023/02/15 11:40:59;;;;;;;;;100.75;94.50;;;;;9.64;63.35;102213.94;4879977;29;45577;-67
2023/02/15 11:43:33;;;;;;;;;103.50;93.50;;;;;9.89;62.93;102261.81;4878717;29;45495;-67
2023/02/15 11:45:59;;;;;;;;;99.25;95.50;;;;;9.89;63.18;102248.47;4875435;29;45492;-67
2023/02/15 11:48:25;;;;;;;;;105.75;99.00;;;;;9.99;62.37;102254.66;4878896;29;45415;-67
2023/02/15 11:50:50;;;;;;;;;114.00;98.25;;;;;9.92;62.87;102228.88;4873941;29;47920;-67
2023/02/15 11:53:20;;;;;;;;;92.50;88.00;;;;;10.07;62.55;102247.47;4873849;29;45706;-66
2023/02/15 11:55:48;;;;;;;;;103.25;96.50;;;;;10.09;62.60;102251.03;4871565;29;45671;-67
2023/02/15 11:58:36;;;;;;;;;108.25;99.75;;;;;10.15;63.09;102245.63;4880916;29;45411;-67
2023/02/15 12:01:28;;;;;;;;;94.25;85.75;;;;;10.13;63.00;102225.22;4864293;29;46216;-67
2023/02/15 12:04:06;;;;;;;;;94.25;83.00;;;;;10.28;62.45;102246.44;4869028;29;46897;-67
2023/02/15 12:06:49;;;;;;;;;98.00;90.75;;;;;10.19;62.21;102223.38;4891077;29;45505;-67
2023/02/15 12:09:36;;;;;;;;;92.75;83.75;;;;;10.36;62.82;102239.31;4876265;29;45485;-67
2023/02/15 12:12:27;;;;;;;;;94.50;84.25;;;;;10.43;62.41;102244.59;4871500;29;46147;-67
2023/02/15 12:15:13;;;;;;;;;95.75;88.50;;;;;10.47;62.57;102235.66;4864775;29;46111;-67
2023/02/15 12:17:50;;;;;;;;;104.50;91.00;;;;;10.46;61.98;102228.56;4873454;29;45388;-67
2023/02/15 12:20:15;;;;;;;;;93.75;84.50;;;;;10.54;62.34;102248.97;4868051;29;45313;-67
2023/02/15 12:23:02;;;;;;;;;102.50;93.00;;;;;10.40;62.28;102210.78;4870744;29;45517;-75
2023/02/15 12:25:33;;;;;;;;;93.75;85.00;;;;;10.67;62.01;102232.81;4877336;29;45779;-75
2023/02/15 12:27:59;;;;;;;;;92.50;82.50;;;;;10.60;62.09;102210.63;4877571;29;45556;-75
2023/02/15 12:30:31;;;;;;;;;95.75;83.50;;;;;10.72;61.50;102226.53;4878892;29;45746;-76
2023/02/15 12:33:05;;;;;;;;;92.75;84.00;;;;;10.73;61.32;102219.41;4874856;29;45888;-75
2023/02/15 12:35:35;;;;;;;;;100.25;87.00;;;;;10.77;61.38;102223.81;4877478;29;46167;-75
2023/02/15 12:38:05;;;;;;;;;88.50;72.50;;;;;10.66;61.02;102193.66;4894075;29;45407;-75
2023/02/15 12:40:33;;;;;;;;;88.25;75.25;;;;;10.64;60.71;102175.00;4878255;29;45532;-75
2023/02/15 12:42:58;;;;;;;;;84.50;72.75;;;;;10.90;61.38;102213.91;4873878;29;47306;-75
2023/02/15 12:45:33;;;;;;;;;90.50;79.75;;;;;10.99;61.28;102220.94;4876310;29;45497;-75
2023/02/15 12:48:19;;;;;;;;;85.50;69.25;;;;;11.02;60.89;102216.44;4876254;29;45386;-75
2023/02/15 12:50:50;;;;;;;;;88.75;77.75;;;;;10.99;60.73;102208.44;4864722;29;45497;-76
2023/02/15 12:53:25;;;;;;;;;88.00;77.50;;;;;11.03;61.07;102204.84;4878988;29;47764;-75
2023/02/15 12:56:06;;;;;;;;;83.75;74.25;;;;;11.16;60.67;102221.66;4875866;29;45652;-76
2023/02/15 12:58:33;;;;;;;;;86.75;74.75;;;;;11.22;60.18;102221.56;4878150;29;45525;-75
2023/02/15 13:01:04;;;;;;;;;81.00;65.00;;;;;11.27;60.81;102219.72;4870265;29;45285;-75
2023/02/15 13:03:30;;;;;;;;;88.25;72.75;;;;;11.16;60.67;102204.72;4875351;29;46307;-75
2023/02/15 13:05:57;;;;;;;;;84.00;73.75;;;;;11.27;60.33;102214.38;4882141;29;45455;-75
2023/02/15 13:08:35;;;;;;;;;87.00;74.25;;;;;11.39;60.08;102221.34;4880242;29;45442;-74
2023/02/15 13:11:10;;;;;;;;;80.75;64.25;;;;;11.43;60.24;102208.88;4874392;29;46152;-74
2023/02/15 13:13:54;;;;;;;;;83.75;70.50;;;;;11.43;60.20;102209.75;4876583;29;46315;-75
2023/02/15 13:16:33;;;;;;;;;85.75;71.50;;;;;11.47;59.55;102205.22;4859363;29;46148;-75
2023/02/15 13:19:23;;;;;;;;;85.50;72.00;;;;;11.46;59.29;102206.13;4872934;29;46808;-75
2023/02/15 13:21:51;;;;;;;;;87.50;75.00;;;;;11.46;59.95;102196.34;4875646;29;45628;-74
2023/02/15 13:24:48;;;;;;;;;87.25;74.50;;;;;11.58;59.61;102214.00;4877616;29;46218;-75
2023/02/15 13:27:18;;;;;;;;;85.25;74.00;;;;;11.52;59.30;102191.81;4879279;29;45599;-76
2023/02/15 13:29:51;;;;;;;;;85.00;71.00;;;;;11.66;59.46;102208.53;4877110;29;45670;-75
2023/02/15 13:32:26;;;;;;;;;82.50;71.75;;;;;11.41;59.41;102159.84;4874096;29;47111;-75
2023/02/15 13:34:56;;;;;;;;;82.50;71.50;;;;;11.62;59.24;102194.31;4877363;29;47334;-75
2023/02/15 13:37:22;;;;;;;;;86.25;75.00;;;;;11.74;59.06;102206.66;4875441;29;45625;-75
2023/02/15 13:39:50;;;;;;;;;83.67;71.00;;;;;11.68;59.21;102199.59;4873031;29;45411;-75
2023/02/15 13:42:21;;;;;;;;;86.00;76.25;;;;;11.79;59.21;102202.13;4870502;29;45280;-76
2023/02/15 13:45:25;;;;;;;;;82.50;69.75;;;;;11.64;59.30;102168.47;4875415;29;45498;-75
2023/02/15 13:47:59;;;;;;;;;85.00;76.00;;;;;11.82;59.24;102190.50;4882587;29;46356;-75
2023/02/15 13:50:37;;;;;;;;;80.00;64.25;;;;;11.92;58.98;102199.31;4880796;29;45564;-75
2023/02/15 13:53:02;;;;;;;;;84.00;69.75;;;;;11.94;58.95;102198.38;4881037;29;45386;-72
2023/02/15 13:55:43;;;;;;;;;81.00;68.75;;;;;11.97;59.09;102190.31;4880204;29;45640;-75
2023/02/15 13:58:46;;;;;;;;;82.25;66.50;;;;;12.00;58.75;102194.75;4869764;29;46084;-75
2023/02/15 14:01:28;;;;;;;;;82.25;64.50;;;;;11.99;58.72;102188.47;4870512;29;45788;-75
2023/02/15 14:04:41;;;;;;;;;81.25;63.00;;;;;12.02;58.99;102180.41;4864380;29;45841;-75
2023/02/15 14:07:25;;;;;;;;;75.75;64.00;;;;;12.08;58.97;102186.56;4889115;29;45784;-76
2023/02/15 14:09:57;;;;;;;;;81.00;65.00;;;;;12.03;59.25;102159.91;4887640;28;46104;-75
2023/02/15 14:12:29;;;;;;;;;80.50;63.00;;;;;12.02;58.92;102147.41;4878788;29;45771;-75
2023/02/15 14:15:21;;;;;;;;;79.75;63.50;;;;;12.15;58.98;102169.53;4875324;29;45641;-76
2023/02/15 14:18:02;;;;;;;;;79.00;62.50;;;;;12.08;58.73;102152.69;4868470;29;45681;-76
2023/02/15 14:21:17;;;;;;;;;79.00;62.00;;;;;12.12;59.09;102164.22;4876217;29;46225;-76
2023/02/15 14:23:55;;;;;;;;;81.75;69.00;;;;;12.20;58.71;102181.91;4891007;28;45440;-76
2023/02/15 14:26:37;;;;;;;;;76.25;61.00;;;;;12.21;58.68;102180.13;4875754;29;45708;-76
2023/02/15 14:29:14;;;;;;;;;76.00;59.50;;;;;12.22;58.45;102182.75;4873759;29;46228;-76